Aérodrome :
LOGIN :

S'inscrire | Disclaimer

   EN    FR    IT 

 










Légende :    VFR   VFR Marginal   IFR   IFR Intensif   IFR Très Intensif
Visi : 
Plafond : 
>= 8 km
>= 3000ft
5 à 8 km
1000 à 3000 ft
1500m à 5 km
500 à 1000 ft
800 à 1500m
200 à 500 ft
< 800m
< 200 ft
Symboles :   Orages  Brouillard  Fortes neiges  Fortes précipitations  Vent > 20 kt
SIGMETs :   Divers  Orages  Givrage  Turbulence  Onde Orograph.  Cendres Volcan.






- Altitude de l'aérodrome : 131 ft
- Code IATA : TLL


EETN - Talinn

DERNIER METAR :
  • 032020Z 28013KT 9999 FEW040 01/M04 Q0999 NOSIG

METARs EXPIRÉS :
  • 031950Z 28016KT 9999 FEW038 02/M05 Q0999 NOSIG
  • 031920Z 28017KT 9999 FEW036 02/M05 Q0998 NOSIG
  • 031850Z 27016KT 9999 FEW032 BKN046 02/M04 Q0998 NOSIG
  • 031820Z 27017KT 9999 FEW023CB SCT045 02/M04 Q0997 NOSIG
  • 031750Z 27017KT 9999 VCSH FEW023CB BKN042 01/M02 Q0996 NOSIG

TAF TAF EETN
Valide du 03 à 18h jusqu'au 04 à 18h UTC


031700Z 0318/0418 28017G27KT 9999 BKN030 PR0B30
TEMPO 0318/0404 2000 SHSN BKN007 SCT015CB
BECMG 0321/0323 26010KT
BECMG 0409/0411 27016G26KT
PROB40
TEMPO 0411/0416 SCT020CB



MET'MAP, la Météo Aéronautique d'un coup d'oeil ! - Copyright ORBIFLY Décembre 2007 - Disclaimer

ORBIFLY MET'MAP TEAM :

Programmation & Développement : Alexandra Zaïnal
Sur une idée originale de : Baudouin d'Aumeries
Assistance à la programmation : Marc-Olivier Méhu
Soutien technique & logistique : Manuel Goepfert

Contact : metmap@orbifly.com




SOURCES & CREDITS :

   NOAA